sensor_id;sensor_type;location;lat;lon;timestamp;P1;durP1;ratioP1;P2;durP2;ratioP2
75316;SDS011;63913;51.492;10.368;2024-03-23T00:53:39;2.05;;;1.52;;
75316;SDS011;63913;51.492;10.368;2024-03-23T00:56:04;3.10;;;1.80;;
75316;SDS011;63913;51.492;10.368;2024-03-23T00:58:30;3.38;;;1.42;;
75316;SDS011;63913;51.492;10.368;2024-03-23T01:00:55;7.95;;;2.10;;
75316;SDS011;63913;51.492;10.368;2024-03-23T01:03:21;4.13;;;2.15;;
75316;SDS011;63913;51.492;10.368;2024-03-23T01:05:46;4.15;;;1.83;;
75316;SDS011;63913;51.492;10.368;2024-03-23T01:08:11;3.27;;;2.03;;
75316;SDS011;63913;51.492;10.368;2024-03-23T01:10:37;3.75;;;1.83;;
75316;SDS011;63913;51.492;10.368;2024-03-23T01:13:02;3.37;;;1.40;;
75316;SDS011;63913;51.492;10.368;2024-03-23T01:15:27;2.97;;;1.40;;
75316;SDS011;63913;51.492;10.368;2024-03-23T01:17:53;2.50;;;1.50;;
75316;SDS011;63913;51.492;10.368;2024-03-23T01:20:18;4.45;;;1.98;;
75316;SDS011;63913;51.492;10.368;2024-03-23T01:22:43;4.30;;;2.00;;
75316;SDS011;63913;51.492;10.368;2024-03-23T01:25:09;4.60;;;1.70;;
75316;SDS011;63913;51.492;10.368;2024-03-23T01:27:34;3.10;;;1.65;;
75316;SDS011;63913;51.492;10.368;2024-03-23T01:29:59;5.07;;;1.92;;
75316;SDS011;63913;51.492;10.368;2024-03-23T01:32:25;3.28;;;1.90;;
75316;SDS011;63913;51.492;10.368;2024-03-23T01:34:50;4.57;;;2.10;;
75316;SDS011;63913;51.492;10.368;2024-03-23T01:37:15;5.53;;;2.00;;
75316;SDS011;63913;51.492;10.368;2024-03-23T01:39:41;3.50;;;1.70;;
75316;SDS011;63913;51.492;10.368;2024-03-23T01:42:06;6.23;;;2.17;;
75316;SDS011;63913;51.492;10.368;2024-03-23T01:44:31;5.27;;;2.10;;
75316;SDS011;63913;51.492;10.368;2024-03-23T01:46:56;3.40;;;1.80;;
75316;SDS011;63913;51.492;10.368;2024-03-23T01:49:22;4.75;;;1.92;;
75316;SDS011;63913;51.492;10.368;2024-03-23T01:51:47;3.97;;;1.88;;
75316;SDS011;63913;51.492;10.368;2024-03-23T01:54:13;4.25;;;1.95;;
75316;SDS011;63913;51.492;10.368;2024-03-23T01:56:38;5.43;;;1.52;;
75316;SDS011;63913;51.492;10.368;2024-03-23T01:59:04;3.17;;;1.60;;
75316;SDS011;63913;51.492;10.368;2024-03-23T02:01:30;3.63;;;1.83;;
75316;SDS011;63913;51.492;10.368;2024-03-23T02:03:56;4.25;;;1.58;;
75316;SDS011;63913;51.492;10.368;2024-03-23T02:06:22;3.92;;;1.60;;
75316;SDS011;63913;51.492;10.368;2024-03-23T02:08:48;2.67;;;1.30;;
75316;SDS011;63913;51.492;10.368;2024-03-23T02:11:14;3.47;;;1.95;;
75316;SDS011;63913;51.492;10.368;2024-03-23T02:13:39;3.25;;;1.35;;
75316;SDS011;63913;51.492;10.368;2024-03-23T02:16:05;2.43;;;1.50;;
75316;SDS011;63913;51.492;10.368;2024-03-23T02:18:32;1.98;;;1.42;;
75316;SDS011;63913;51.492;10.368;2024-03-23T02:20:57;4.57;;;1.98;;
75316;SDS011;63913;51.492;10.368;2024-03-23T02:23:23;3.13;;;1.60;;
75316;SDS011;63913;51.492;10.368;2024-03-23T02:25:49;4.15;;;1.73;;
75316;SDS011;63913;51.492;10.368;2024-03-23T02:28:15;4.68;;;2.05;;
75316;SDS011;63913;51.492;10.368;2024-03-23T02:30:40;2.83;;;1.77;;
75316;SDS011;63913;51.492;10.368;2024-03-23T02:33:05;4.93;;;2.10;;
75316;SDS011;63913;51.492;10.368;2024-03-23T02:35:31;3.05;;;1.80;;
75316;SDS011;63913;51.492;10.368;2024-03-23T02:37:56;5.20;;;1.52;;
75316;SDS011;63913;51.492;10.368;2024-03-23T02:40:25;2.85;;;1.60;;
75316;SDS011;63913;51.492;10.368;2024-03-23T02:42:51;7.25;;;1.85;;
75316;SDS011;63913;51.492;10.368;2024-03-23T02:45:17;5.32;;;1.92;;
75316;SDS011;63913;51.492;10.368;2024-03-23T02:47:42;5.88;;;1.63;;
75316;SDS011;63913;51.492;10.368;2024-03-23T02:50:08;6.07;;;1.70;;
75316;SDS011;63913;51.492;10.368;2024-03-23T02:52:34;4.43;;;1.58;;
75316;SDS011;63913;51.492;10.368;2024-03-23T02:54:59;3.70;;;1.83;;
75316;SDS011;63913;51.492;10.368;2024-03-23T02:57:26;4.32;;;1.60;;
75316;SDS011;63913;51.492;10.368;2024-03-23T02:59:52;5.57;;;2.15;;
75316;SDS011;63913;51.492;10.368;2024-03-23T03:02:17;5.38;;;1.90;;
75316;SDS011;63913;51.492;10.368;2024-03-23T03:04:43;5.47;;;2.28;;
75316;SDS011;63913;51.492;10.368;2024-03-23T03:07:08;4.87;;;2.73;;
75316;SDS011;63913;51.492;10.368;2024-03-23T03:09:33;3.97;;;2.10;;
75316;SDS011;63913;51.492;10.368;2024-03-23T03:12:00;6.82;;;2.30;;
75316;SDS011;63913;51.492;10.368;2024-03-23T03:14:28;7.10;;;2.28;;
75316;SDS011;63913;51.492;10.368;2024-03-23T03:16:54;6.43;;;2.90;;
75316;SDS011;63913;51.492;10.368;2024-03-23T03:19:19;6.85;;;2.92;;
75316;SDS011;63913;51.492;10.368;2024-03-23T03:21:45;6.55;;;2.83;;
75316;SDS011;63913;51.492;10.368;2024-03-23T03:24:10;6.03;;;2.63;;
75316;SDS011;63913;51.492;10.368;2024-03-23T03:26:35;5.70;;;2.45;;
75316;SDS011;63913;51.492;10.368;2024-03-23T03:29:01;6.28;;;2.70;;
75316;SDS011;63913;51.492;10.368;2024-03-23T03:31:27;6.93;;;3.15;;
75316;SDS011;63913;51.492;10.368;2024-03-23T03:33:52;7.20;;;2.90;;
75316;SDS011;63913;51.492;10.368;2024-03-23T03:36:18;6.63;;;3.03;;
75316;SDS011;63913;51.492;10.368;2024-03-23T03:38:43;7.43;;;3.00;;
75316;SDS011;63913;51.492;10.368;2024-03-23T03:41:08;5.77;;;3.00;;
75316;SDS011;63913;51.492;10.368;2024-03-23T03:43:34;6.88;;;2.60;;
75316;SDS011;63913;51.492;10.368;2024-03-23T03:45:59;4.93;;;2.47;;
75316;SDS011;63913;51.492;10.368;2024-03-23T03:48:26;4.40;;;2.53;;
75316;SDS011;63913;51.492;10.368;2024-03-23T03:50:52;5.43;;;2.40;;
75316;SDS011;63913;51.492;10.368;2024-03-23T03:53:17;4.05;;;2.05;;
75316;SDS011;63913;51.492;10.368;2024-03-23T03:55:43;5.07;;;1.98;;
75316;SDS011;63913;51.492;10.368;2024-03-23T03:58:08;5.10;;;1.90;;
75316;SDS011;63913;51.492;10.368;2024-03-23T04:00:34;4.90;;;2.07;;
75316;SDS011;63913;51.492;10.368;2024-03-23T04:02:59;4.13;;;1.98;;
75316;SDS011;63913;51.492;10.368;2024-03-23T04:05:24;5.07;;;2.30;;
75316;SDS011;63913;51.492;10.368;2024-03-23T04:07:50;4.37;;;2.20;;
75316;SDS011;63913;51.492;10.368;2024-03-23T04:10:15;3.17;;;1.90;;
75316;SDS011;63913;51.492;10.368;2024-03-23T04:12:40;3.35;;;1.98;;
75316;SDS011;63913;51.492;10.368;2024-03-23T04:15:07;6.32;;;2.30;;
75316;SDS011;63913;51.492;10.368;2024-03-23T04:17:33;5.13;;;2.20;;
75316;SDS011;63913;51.492;10.368;2024-03-23T04:19:59;5.60;;;2.28;;
75316;SDS011;63913;51.492;10.368;2024-03-23T04:22:26;5.95;;;2.08;;
75316;SDS011;63913;51.492;10.368;2024-03-23T04:24:55;4.18;;;1.98;;
75316;SDS011;63913;51.492;10.368;2024-03-23T04:27:22;2.70;;;1.90;;
75316;SDS011;63913;51.492;10.368;2024-03-23T04:29:48;2.55;;;1.42;;
75316;SDS011;63913;51.492;10.368;2024-03-23T04:32:14;4.30;;;1.90;;
75316;SDS011;63913;51.492;10.368;2024-03-23T04:34:39;3.08;;;1.58;;
75316;SDS011;63913;51.492;10.368;2024-03-23T04:37:05;3.05;;;1.73;;
75316;SDS011;63913;51.492;10.368;2024-03-23T04:39:30;4.88;;;2.30;;
75316;SDS011;63913;51.492;10.368;2024-03-23T04:41:55;4.50;;;2.03;;
75316;SDS011;63913;51.492;10.368;2024-03-23T04:44:21;4.50;;;1.77;;
75316;SDS011;63913;51.492;10.368;2024-03-23T04:46:46;2.53;;;1.65;;
75316;SDS011;63913;51.492;10.368;2024-03-23T04:49:12;3.38;;;1.60;;
75316;SDS011;63913;51.492;10.368;2024-03-23T04:51:38;2.60;;;1.45;;
75316;SDS011;63913;51.492;10.368;2024-03-23T04:54:03;2.40;;;1.55;;
75316;SDS011;63913;51.492;10.368;2024-03-23T04:56:30;3.40;;;1.92;;
75316;SDS011;63913;51.492;10.368;2024-03-23T04:58:56;3.05;;;1.67;;
75316;SDS011;63913;51.492;10.368;2024-03-23T05:01:26;2.65;;;1.35;;
75316;SDS011;63913;51.492;10.368;2024-03-23T05:03:51;2.60;;;1.38;;
75316;SDS011;63913;51.492;10.368;2024-03-23T05:06:18;2.38;;;1.13;;
75316;SDS011;63913;51.492;10.368;2024-03-23T05:08:43;1.08;;;0.90;;
75316;SDS011;63913;51.492;10.368;2024-03-23T05:11:08;1.02;;;0.85;;
75316;SDS011;63913;51.492;10.368;2024-03-23T05:13:34;1.95;;;0.90;;
75316;SDS011;63913;51.492;10.368;2024-03-23T05:15:59;1.30;;;0.93;;
75316;SDS011;63913;51.492;10.368;2024-03-23T05:18:24;3.90;;;1.63;;
75316;SDS011;63913;51.492;10.368;2024-03-23T05:20:55;1.75;;;1.08;;
75316;SDS011;63913;51.492;10.368;2024-03-23T05:23:22;2.63;;;2.00;;
75316;SDS011;63913;51.492;10.368;2024-03-23T05:25:47;1.52;;;1.02;;
75316;SDS011;63913;51.492;10.368;2024-03-23T05:28:13;1.23;;;0.87;;
75316;SDS011;63913;51.492;10.368;2024-03-23T05:30:38;1.83;;;1.00;;
75316;SDS011;63913;51.492;10.368;2024-03-23T05:33:05;1.58;;;0.68;;
75316;SDS011;63913;51.492;10.368;2024-03-23T05:35:30;1.00;;;0.77;;
75316;SDS011;63913;51.492;10.368;2024-03-23T05:37:55;1.65;;;0.90;;
75316;SDS011;63913;51.492;10.368;2024-03-23T05:40:21;1.33;;;0.90;;
75316;SDS011;63913;51.492;10.368;2024-03-23T05:42:46;1.30;;;0.97;;
75316;SDS011;63913;51.492;10.368;2024-03-23T05:45:11;0.90;;;0.90;;
75316;SDS011;63913;51.492;10.368;2024-03-23T05:47:37;1.60;;;0.73;;
75316;SDS011;63913;51.492;10.368;2024-03-23T05:50:03;1.17;;;1.02;;
75316;SDS011;63913;51.492;10.368;2024-03-23T05:52:28;2.10;;;0.80;;
75316;SDS011;63913;51.492;10.368;2024-03-23T05:54:54;0.55;;;0.55;;
75316;SDS011;63913;51.492;10.368;2024-03-23T05:57:20;1.75;;;0.82;;
75316;SDS011;63913;51.492;10.368;2024-03-23T05:59:45;0.75;;;0.75;;
75316;SDS011;63913;51.492;10.368;2024-03-23T06:02:11;4.07;;;0.80;;
75316;SDS011;63913;51.492;10.368;2024-03-23T06:04:36;3.35;;;1.75;;
75316;SDS011;63913;51.492;10.368;2024-03-23T06:07:02;2.22;;;1.10;;
75316;SDS011;63913;51.492;10.368;2024-03-23T06:09:27;2.30;;;0.80;;
75316;SDS011;63913;51.492;10.368;2024-03-23T06:11:56;2.13;;;1.08;;
75316;SDS011;63913;51.492;10.368;2024-03-23T06:14:21;3.58;;;1.70;;
75316;SDS011;63913;51.492;10.368;2024-03-23T06:16:47;1.23;;;0.97;;
75316;SDS011;63913;51.492;10.368;2024-03-23T06:19:12;1.70;;;0.73;;
75316;SDS011;63913;51.492;10.368;2024-03-23T06:21:42;0.77;;;0.73;;
75316;SDS011;63913;51.492;10.368;2024-03-23T06:24:08;3.90;;;2.30;;
75316;SDS011;63913;51.492;10.368;2024-03-23T06:26:33;1.50;;;0.73;;
75316;SDS011;63913;51.492;10.368;2024-03-23T06:28:59;1.40;;;0.70;;
75316;SDS011;63913;51.492;10.368;2024-03-23T06:31:24;0.80;;;0.50;;
75316;SDS011;63913;51.492;10.368;2024-03-23T06:33:49;1.30;;;0.60;;
75316;SDS011;63913;51.492;10.368;2024-03-23T06:36:14;1.07;;;0.60;;
75316;SDS011;63913;51.492;10.368;2024-03-23T06:38:40;0.60;;;0.60;;
75316;SDS011;63913;51.492;10.368;2024-03-23T06:41:05;0.47;;;0.47;;
75316;SDS011;63913;51.492;10.368;2024-03-23T06:43:31;1.17;;;0.60;;
75316;SDS011;63913;51.492;10.368;2024-03-23T06:45:56;0.40;;;0.35;;
75316;SDS011;63913;51.492;10.368;2024-03-23T06:48:22;0.47;;;0.43;;
75316;SDS011;63913;51.492;10.368;2024-03-23T06:50:48;1.48;;;1.38;;
75316;SDS011;63913;51.492;10.368;2024-03-23T06:53:13;1.33;;;0.47;;
75316;SDS011;63913;51.492;10.368;2024-03-23T06:55:39;0.75;;;0.40;;
75316;SDS011;63913;51.492;10.368;2024-03-23T06:58:05;0.50;;;0.47;;
75316;SDS011;63913;51.492;10.368;2024-03-23T07:00:30;2.55;;;0.50;;
75316;SDS011;63913;51.492;10.368;2024-03-23T07:02:57;1.00;;;0.70;;
75316;SDS011;63913;51.492;10.368;2024-03-23T07:05:22;1.90;;;0.60;;
75316;SDS011;63913;51.492;10.368;2024-03-23T07:07:48;1.98;;;0.68;;
75316;SDS011;63913;51.492;10.368;2024-03-23T07:10:13;2.03;;;0.60;;
75316;SDS011;63913;51.492;10.368;2024-03-23T07:12:38;0.80;;;0.68;;
75316;SDS011;63913;51.492;10.368;2024-03-23T07:15:04;0.80;;;0.67;;
75316;SDS011;63913;51.492;10.368;2024-03-23T07:17:29;0.95;;;0.52;;
75316;SDS011;63913;51.492;10.368;2024-03-23T07:19:55;1.48;;;0.52;;
75316;SDS011;63913;51.492;10.368;2024-03-23T07:22:20;0.65;;;0.52;;
75316;SDS011;63913;51.492;10.368;2024-03-23T07:24:46;0.82;;;0.55;;
75316;SDS011;63913;51.492;10.368;2024-03-23T07:27:12;1.57;;;0.47;;
75316;SDS011;63913;51.492;10.368;2024-03-23T07:29:37;1.55;;;0.60;;
75316;SDS011;63913;51.492;10.368;2024-03-23T07:32:02;0.50;;;0.33;;
75316;SDS011;63913;51.492;10.368;2024-03-23T07:34:28;1.23;;;0.40;;
75316;SDS011;63913;51.492;10.368;2024-03-23T07:36:53;1.60;;;0.57;;
75316;SDS011;63913;51.492;10.368;2024-03-23T07:39:19;1.38;;;0.88;;
75316;SDS011;63913;51.492;10.368;2024-03-23T07:41:44;0.50;;;0.50;;
75316;SDS011;63913;51.492;10.368;2024-03-23T07:44:10;0.70;;;0.70;;
75316;SDS011;63913;51.492;10.368;2024-03-23T07:46:36;1.35;;;0.80;;
75316;SDS011;63913;51.492;10.368;2024-03-23T07:49:01;0.70;;;0.70;;
75316;SDS011;63913;51.492;10.368;2024-03-23T07:51:26;0.57;;;0.40;;
75316;SDS011;63913;51.492;10.368;2024-03-23T07:53:52;2.80;;;0.85;;
75316;SDS011;63913;51.492;10.368;2024-03-23T07:56:18;1.73;;;0.80;;
75316;SDS011;63913;51.492;10.368;2024-03-23T07:58:44;0.90;;;0.80;;
75316;SDS011;63913;51.492;10.368;2024-03-23T08:01:14;1.55;;;0.80;;
75316;SDS011;63913;51.492;10.368;2024-03-23T08:03:41;1.35;;;0.70;;
75316;SDS011;63913;51.492;10.368;2024-03-23T08:08:41;1.85;;;0.90;;
75316;SDS011;63913;51.492;10.368;2024-03-23T08:11:07;0.98;;;0.80;;
75316;SDS011;63913;51.492;10.368;2024-03-23T08:13:33;1.05;;;0.70;;
75316;SDS011;63913;51.492;10.368;2024-03-23T08:16:00;2.33;;;1.17;;
75316;SDS011;63913;51.492;10.368;2024-03-23T08:18:26;2.65;;;1.20;;
75316;SDS011;63913;51.492;10.368;2024-03-23T08:21:25;2.45;;;1.00;;
75316;SDS011;63913;51.492;10.368;2024-03-23T08:23:43;2.78;;;1.10;;
75316;SDS011;63913;51.492;10.368;2024-03-23T08:26:10;1.23;;;1.00;;
75316;SDS011;63913;51.492;10.368;2024-03-23T08:28:37;1.95;;;1.10;;
75316;SDS011;63913;51.492;10.368;2024-03-23T08:31:12;2.67;;;0.80;;
75316;SDS011;63913;51.492;10.368;2024-03-23T08:33:39;1.40;;;1.30;;
75316;SDS011;63913;51.492;10.368;2024-03-23T08:36:05;1.58;;;1.30;;
75316;SDS011;63913;51.492;10.368;2024-03-23T08:38:32;2.03;;;1.02;;
75316;SDS011;63913;51.492;10.368;2024-03-23T08:40:58;1.83;;;1.02;;
75316;SDS011;63913;51.492;10.368;2024-03-23T08:43:24;1.17;;;1.05;;
75316;SDS011;63913;51.492;10.368;2024-03-23T08:45:51;3.78;;;1.25;;
75316;SDS011;63913;51.492;10.368;2024-03-23T08:48:17;3.08;;;1.08;;
75316;SDS011;63913;51.492;10.368;2024-03-23T08:50:43;3.17;;;1.02;;
75316;SDS011;63913;51.492;10.368;2024-03-23T08:53:08;2.97;;;0.80;;
75316;SDS011;63913;51.492;10.368;2024-03-23T08:55:34;2.00;;;0.63;;
75316;SDS011;63913;51.492;10.368;2024-03-23T08:58:00;2.47;;;0.85;;
75316;SDS011;63913;51.492;10.368;2024-03-23T09:00:26;5.53;;;0.95;;
75316;SDS011;63913;51.492;10.368;2024-03-23T09:02:51;1.08;;;0.90;;
75316;SDS011;63913;51.492;10.368;2024-03-23T09:05:16;1.95;;;0.80;;
75316;SDS011;63913;51.492;10.368;2024-03-23T09:07:43;1.43;;;0.60;;
75316;SDS011;63913;51.492;10.368;2024-03-23T09:10:08;4.95;;;1.15;;
75316;SDS011;63913;51.492;10.368;2024-03-23T09:12:34;2.72;;;0.95;;
75316;SDS011;63913;51.492;10.368;2024-03-23T09:14:59;3.15;;;1.05;;
75316;SDS011;63913;51.492;10.368;2024-03-23T09:17:24;5.00;;;1.03;;
75316;SDS011;63913;51.492;10.368;2024-03-23T09:19:50;5.25;;;1.40;;
75316;SDS011;63913;51.492;10.368;2024-03-23T09:22:15;2.23;;;1.40;;
75316;SDS011;63913;51.492;10.368;2024-03-23T09:24:40;7.05;;;1.65;;
75316;SDS011;63913;51.492;10.368;2024-03-23T09:27:06;4.95;;;1.52;;
75316;SDS011;63913;51.492;10.368;2024-03-23T09:29:31;2.88;;;1.25;;
75316;SDS011;63913;51.492;10.368;2024-03-23T09:31:57;2.25;;;0.82;;
75316;SDS011;63913;51.492;10.368;2024-03-23T09:34:22;2.13;;;0.80;;
75316;SDS011;63913;51.492;10.368;2024-03-23T09:36:50;2.67;;;0.93;;
75316;SDS011;63913;51.492;10.368;2024-03-23T09:39:16;2.80;;;1.00;;
75316;SDS011;63913;51.492;10.368;2024-03-23T09:41:42;4.32;;;1.10;;
75316;SDS011;63913;51.492;10.368;2024-03-23T09:44:07;2.70;;;0.90;;
75316;SDS011;63913;51.492;10.368;2024-03-23T09:46:33;3.00;;;1.33;;
75316;SDS011;63913;51.492;10.368;2024-03-23T09:49:01;3.38;;;1.33;;
75316;SDS011;63913;51.492;10.368;2024-03-23T09:51:29;7.93;;;1.63;;
75316;SDS011;63913;51.492;10.368;2024-03-23T09:53:55;2.35;;;1.05;;
75316;SDS011;63913;51.492;10.368;2024-03-23T09:56:21;4.20;;;1.30;;
75316;SDS011;63913;51.492;10.368;2024-03-23T09:58:48;5.57;;;1.95;;
75316;SDS011;63913;51.492;10.368;2024-03-23T10:01:14;4.18;;;1.77;;
75316;SDS011;63913;51.492;10.368;2024-03-23T10:03:46;5.30;;;1.70;;
75316;SDS011;63913;51.492;10.368;2024-03-23T10:06:11;5.20;;;1.60;;
75316;SDS011;63913;51.492;10.368;2024-03-23T10:08:36;5.97;;;2.25;;
75316;SDS011;63913;51.492;10.368;2024-03-23T10:11:12;9.68;;;2.47;;
75316;SDS011;63913;51.492;10.368;2024-03-23T10:13:41;3.92;;;2.00;;
75316;SDS011;63913;51.492;10.368;2024-03-23T10:16:07;4.18;;;1.80;;
75316;SDS011;63913;51.492;10.368;2024-03-23T10:18:36;6.32;;;2.05;;
75316;SDS011;63913;51.492;10.368;2024-03-23T10:23:31;7.95;;;2.10;;
75316;SDS011;63913;51.492;10.368;2024-03-23T10:26:12;9.63;;;3.30;;
75316;SDS011;63913;51.492;10.368;2024-03-23T10:28:50;8.02;;;2.90;;
75316;SDS011;63913;51.492;10.368;2024-03-23T10:31:36;7.80;;;2.70;;
75316;SDS011;63913;51.492;10.368;2024-03-23T10:34:03;7.22;;;2.70;;
75316;SDS011;63913;51.492;10.368;2024-03-23T10:36:28;6.70;;;2.72;;
75316;SDS011;63913;51.492;10.368;2024-03-23T10:38:55;6.38;;;2.67;;
75316;SDS011;63913;51.492;10.368;2024-03-23T10:41:23;4.57;;;2.35;;
75316;SDS011;63913;51.492;10.368;2024-03-23T10:43:52;7.68;;;2.90;;
75316;SDS011;63913;51.492;10.368;2024-03-23T10:46:18;8.25;;;3.13;;
75316;SDS011;63913;51.492;10.368;2024-03-23T10:48:44;9.48;;;3.38;;
75316;SDS011;63913;51.492;10.368;2024-03-23T10:51:09;5.88;;;3.25;;
75316;SDS011;63913;51.492;10.368;2024-03-23T10:53:35;8.32;;;3.47;;
75316;SDS011;63913;51.492;10.368;2024-03-23T10:56:02;10.38;;;3.92;;
75316;SDS011;63913;51.492;10.368;2024-03-23T10:58:30;6.88;;;3.22;;
75316;SDS011;63913;51.492;10.368;2024-03-23T11:00:58;10.10;;;3.28;;
75316;SDS011;63913;51.492;10.368;2024-03-23T11:03:31;6.72;;;3.15;;
75316;SDS011;63913;51.492;10.368;2024-03-23T11:06:01;7.50;;;3.05;;
75316;SDS011;63913;51.492;10.368;2024-03-23T11:13:52;5.72;;;3.00;;
75316;SDS011;63913;51.492;10.368;2024-03-23T11:16:26;8.70;;;2.88;;
75316;SDS011;63913;51.492;10.368;2024-03-23T11:22:03;6.68;;;3.10;;
75316;SDS011;63913;51.492;10.368;2024-03-23T11:24:30;5.07;;;3.00;;
75316;SDS011;63913;51.492;10.368;2024-03-23T11:26:56;5.03;;;2.53;;
75316;SDS011;63913;51.492;10.368;2024-03-23T11:29:25;5.43;;;2.40;;
75316;SDS011;63913;51.492;10.368;2024-03-23T11:31:51;6.70;;;2.20;;
75316;SDS011;63913;51.492;10.368;2024-03-23T11:34:18;7.07;;;2.80;;
75316;SDS011;63913;51.492;10.368;2024-03-23T11:36:45;6.05;;;2.58;;
75316;SDS011;63913;51.492;10.368;2024-03-23T11:39:14;8.13;;;2.53;;
75316;SDS011;63913;51.492;10.368;2024-03-23T11:41:52;16.35;;;5.40;;
75316;SDS011;63913;51.492;10.368;2024-03-23T11:44:18;6.82;;;2.97;;
75316;SDS011;63913;51.492;10.368;2024-03-23T11:46:45;6.97;;;3.05;;
75316;SDS011;63913;51.492;10.368;2024-03-23T11:49:24;5.20;;;2.70;;
75316;SDS011;63913;51.492;10.368;2024-03-23T11:51:52;6.65;;;2.83;;
75316;SDS011;63913;51.492;10.368;2024-03-23T11:54:22;5.55;;;2.80;;
75316;SDS011;63913;51.492;10.368;2024-03-23T11:56:58;4.78;;;2.85;;
75316;SDS011;63913;51.492;10.368;2024-03-23T11:59:36;6.95;;;3.33;;
75316;SDS011;63913;51.492;10.368;2024-03-23T12:02:10;9.63;;;2.50;;
75316;SDS011;63913;51.492;10.368;2024-03-23T12:04:36;5.13;;;1.92;;
75316;SDS011;63913;51.492;10.368;2024-03-23T12:07:09;6.05;;;2.15;;
75316;SDS011;63913;51.492;10.368;2024-03-23T12:09:43;5.43;;;1.80;;
75316;SDS011;63913;51.492;10.368;2024-03-23T12:12:10;4.93;;;2.17;;
75316;SDS011;63913;51.492;10.368;2024-03-23T12:14:38;3.10;;;1.90;;
75316;SDS011;63913;51.492;10.368;2024-03-23T12:17:07;5.37;;;2.43;;
75316;SDS011;63913;51.492;10.368;2024-03-23T12:19:36;6.07;;;2.95;;
75316;SDS011;63913;51.492;10.368;2024-03-23T12:22:02;4.75;;;2.55;;
75316;SDS011;63913;51.492;10.368;2024-03-23T12:24:29;5.55;;;2.17;;
75316;SDS011;63913;51.492;10.368;2024-03-23T12:26:54;2.10;;;1.42;;
75316;SDS011;63913;51.492;10.368;2024-03-23T12:29:20;4.72;;;1.90;;
75316;SDS011;63913;51.492;10.368;2024-03-23T12:31:45;5.43;;;1.87;;
75316;SDS011;63913;51.492;10.368;2024-03-23T12:34:10;5.68;;;2.13;;
75316;SDS011;63913;51.492;10.368;2024-03-23T12:36:36;2.90;;;1.93;;
75316;SDS011;63913;51.492;10.368;2024-03-23T12:39:01;3.63;;;1.60;;
75316;SDS011;63913;51.492;10.368;2024-03-23T12:41:27;3.28;;;1.90;;
75316;SDS011;63913;51.492;10.368;2024-03-23T12:43:52;3.77;;;1.70;;
75316;SDS011;63913;51.492;10.368;2024-03-23T12:46:17;2.78;;;1.75;;
75316;SDS011;63913;51.492;10.368;2024-03-23T12:48:44;4.50;;;2.43;;
75316;SDS011;63913;51.492;10.368;2024-03-23T12:51:10;2.58;;;1.90;;
75316;SDS011;63913;51.492;10.368;2024-03-23T12:53:35;3.65;;;2.00;;
75316;SDS011;63913;51.492;10.368;2024-03-23T12:56:00;2.70;;;1.97;;
75316;SDS011;63913;51.492;10.368;2024-03-23T12:58:26;4.20;;;2.20;;
75316;SDS011;63913;51.492;10.368;2024-03-23T13:00:51;3.83;;;2.20;;
75316;SDS011;63913;51.492;10.368;2024-03-23T13:03:19;3.55;;;1.88;;
75316;SDS011;63913;51.492;10.368;2024-03-23T13:05:54;3.50;;;1.90;;
75316;SDS011;63913;51.492;10.368;2024-03-23T13:08:19;3.70;;;2.20;;
75316;SDS011;63913;51.492;10.368;2024-03-23T13:10:44;2.72;;;1.80;;
75316;SDS011;63913;51.492;10.368;2024-03-23T13:13:10;2.20;;;1.88;;
75316;SDS011;63913;51.492;10.368;2024-03-23T13:15:35;3.60;;;1.85;;
75316;SDS011;63913;51.492;10.368;2024-03-23T13:18:00;2.38;;;1.63;;
75316;SDS011;63913;51.492;10.368;2024-03-23T13:20:26;2.95;;;1.65;;
75316;SDS011;63913;51.492;10.368;2024-03-23T13:22:51;2.33;;;1.70;;
75316;SDS011;63913;51.492;10.368;2024-03-23T13:25:17;3.13;;;1.77;;
75316;SDS011;63913;51.492;10.368;2024-03-23T13:27:43;4.07;;;2.45;;
75316;SDS011;63913;51.492;10.368;2024-03-23T13:30:09;4.72;;;1.88;;
75316;SDS011;63913;51.492;10.368;2024-03-23T13:32:35;4.28;;;1.65;;
75316;SDS011;63913;51.492;10.368;2024-03-23T13:35:00;3.53;;;1.60;;
75316;SDS011;63913;51.492;10.368;2024-03-23T13:37:26;4.07;;;1.63;;
75316;SDS011;63913;51.492;10.368;2024-03-23T13:39:51;3.65;;;2.45;;
75316;SDS011;63913;51.492;10.368;2024-03-23T13:42:17;5.97;;;2.50;;
75316;SDS011;63913;51.492;10.368;2024-03-23T13:44:42;5.20;;;1.60;;
75316;SDS011;63913;51.492;10.368;2024-03-23T13:47:08;2.33;;;1.50;;
75316;SDS011;63913;51.492;10.368;2024-03-23T13:49:33;5.45;;;1.70;;
75316;SDS011;63913;51.492;10.368;2024-03-23T13:51:59;3.40;;;1.70;;
75316;SDS011;63913;51.492;10.368;2024-03-23T13:54:28;5.13;;;1.55;;
75316;SDS011;63913;51.492;10.368;2024-03-23T13:56:54;2.03;;;1.63;;
75316;SDS011;63913;51.492;10.368;2024-03-23T13:59:20;2.45;;;1.63;;
75316;SDS011;63913;51.492;10.368;2024-03-23T14:01:48;2.08;;;1.45;;
75316;SDS011;63913;51.492;10.368;2024-03-23T14:04:13;2.28;;;1.38;;
75316;SDS011;63913;51.492;10.368;2024-03-23T14:06:41;3.65;;;1.60;;
75316;SDS011;63913;51.492;10.368;2024-03-23T14:09:07;4.60;;;1.75;;
75316;SDS011;63913;51.492;10.368;2024-03-23T14:11:35;3.13;;;1.55;;
75316;SDS011;63913;51.492;10.368;2024-03-23T14:14:02;4.15;;;1.48;;
75316;SDS011;63913;51.492;10.368;2024-03-23T14:16:28;3.95;;;1.60;;
75316;SDS011;63913;51.492;10.368;2024-03-23T14:18:56;3.63;;;1.75;;
75316;SDS011;63913;51.492;10.368;2024-03-23T14:21:22;2.80;;;1.58;;
75316;SDS011;63913;51.492;10.368;2024-03-23T14:23:47;2.97;;;1.30;;
75316;SDS011;63913;51.492;10.368;2024-03-23T14:26:13;1.45;;;1.10;;
75316;SDS011;63913;51.492;10.368;2024-03-23T14:28:38;3.15;;;1.65;;
75316;SDS011;63913;51.492;10.368;2024-03-23T14:31:04;4.85;;;1.52;;
75316;SDS011;63913;51.492;10.368;2024-03-23T14:33:35;3.28;;;1.58;;
75316;SDS011;63913;51.492;10.368;2024-03-23T14:36:02;3.67;;;1.70;;
75316;SDS011;63913;51.492;10.368;2024-03-23T14:38:27;2.30;;;1.80;;
75316;SDS011;63913;51.492;10.368;2024-03-23T14:40:53;1.23;;;0.75;;
75316;SDS011;63913;51.492;10.368;2024-03-23T14:43:18;1.23;;;1.13;;
75316;SDS011;63913;51.492;10.368;2024-03-23T14:48:36;1.60;;;1.20;;
75316;SDS011;63913;51.492;10.368;2024-03-23T14:51:02;1.35;;;0.95;;
75316;SDS011;63913;51.492;10.368;2024-03-23T14:53:35;1.02;;;0.90;;
75316;SDS011;63913;51.492;10.368;2024-03-23T14:56:05;1.80;;;1.10;;
75316;SDS011;63913;51.492;10.368;2024-03-23T14:58:31;2.22;;;1.10;;
75316;SDS011;63913;51.492;10.368;2024-03-23T15:01:06;2.15;;;1.20;;
75316;SDS011;63913;51.492;10.368;2024-03-23T15:03:36;2.13;;;1.30;;
75316;SDS011;63913;51.492;10.368;2024-03-23T15:06:04;2.28;;;1.80;;
75316;SDS011;63913;51.492;10.368;2024-03-23T15:08:30;11.43;;;4.10;;
75316;SDS011;63913;51.492;10.368;2024-03-23T15:10:59;15.57;;;5.80;;
75316;SDS011;63913;51.492;10.368;2024-03-23T15:13:25;4.43;;;1.60;;
75316;SDS011;63913;51.492;10.368;2024-03-23T15:15:51;3.55;;;1.20;;
75316;SDS011;63913;51.492;10.368;2024-03-23T15:18:17;2.35;;;1.45;;
75316;SDS011;63913;51.492;10.368;2024-03-23T15:20:56;1.33;;;1.17;;
75316;SDS011;63913;51.492;10.368;2024-03-23T15:23:27;1.52;;;1.13;;
75316;SDS011;63913;51.492;10.368;2024-03-23T15:25:55;1.48;;;1.33;;
75316;SDS011;63913;51.492;10.368;2024-03-23T15:28:25;1.10;;;1.02;;
75316;SDS011;63913;51.492;10.368;2024-03-23T15:31:04;0.80;;;0.80;;
75316;SDS011;63913;51.492;10.368;2024-03-23T15:33:30;1.02;;;0.88;;
75316;SDS011;63913;51.492;10.368;2024-03-23T15:35:58;1.35;;;1.00;;
75316;SDS011;63913;51.492;10.368;2024-03-23T15:38:24;0.95;;;0.95;;